Grenville, Canada
Current Conditions -  °F | °C
As of 5:00 PM on Wednesday 28 Jan 2015 (Local Time) from CYMX Reporting Station
Clear Clear  
Wind Chill:   Ceiling: Unl
Heat Index: 16°   Visibility: 25mi
Dew Point: -2°   Wind: 5mph
Humidity: 45%   Direction: 240°WSW
Pressure: 30.21"   Gusts: NA
Location:  45.63°N, 74.6°W
Report Text: CYMX 282200Z 24004KT 210V270 25SM SKC M09/M19 A3021 RMK SLP238
Loading
Personal Weather Stations






























Interactive Weather Map New forecast layout! Learn more

10-Day Weather Forecast

Advertisements
Track Severe Weather on mobile